createdAt,value
2019-06-20T00:00:43.681Z,2.20
2019-06-20T00:01:43.680Z,2.40
2019-06-20T00:02:43.686Z,2.50
2019-06-20T00:03:43.660Z,2.60
2019-06-20T00:04:43.637Z,2.70
2019-06-20T00:05:43.627Z,2.30
2019-06-20T00:06:43.620Z,2.60
2019-06-20T00:07:43.627Z,2.20
2019-06-20T00:08:43.599Z,2.30
2019-06-20T00:09:43.652Z,2.30
2019-06-20T00:10:43.792Z,2.30
2019-06-20T00:11:43.554Z,2.40
2019-06-20T00:12:56.769Z,2.80
2019-06-20T00:13:44.541Z,2.10
2019-06-20T00:14:43.526Z,2.20
2019-06-20T00:15:43.512Z,2.50
2019-06-20T00:16:43.515Z,2.20
2019-06-20T00:17:43.528Z,2.60
2019-06-20T00:18:43.485Z,2.40
2019-06-20T00:19:43.472Z,2.50
2019-06-20T00:20:43.511Z,2.20
2019-06-20T00:21:43.458Z,2.20
2019-06-20T00:22:43.460Z,2.60
2019-06-20T00:23:43.428Z,2.30
2019-06-20T00:24:43.416Z,2.30
2019-06-20T00:25:43.422Z,2.60
2019-06-20T00:26:43.394Z,2.30
2019-06-20T00:27:43.406Z,2.40
2019-06-20T00:28:43.371Z,2.60
2019-06-20T00:29:43.359Z,2.70
2019-06-20T00:30:43.348Z,2.50
2019-06-20T00:31:43.345Z,2.40
2019-06-20T00:32:43.357Z,2.30
2019-06-20T00:33:43.318Z,2.30
2019-06-20T00:34:43.310Z,2.60
2019-06-20T00:35:43.298Z,2.10
2019-06-20T00:36:43.286Z,2.40
2019-06-20T00:37:43.298Z,2.10
2019-06-20T00:38:43.266Z,2.20
2019-06-20T00:39:43.290Z,2.20
2019-06-20T00:40:43.242Z,2.30
2019-06-20T00:41:43.224Z,2.10
2019-06-20T00:42:43.707Z,2.40
2019-06-20T00:43:43.202Z,2.30
2019-06-20T00:44:43.204Z,2.50
2019-06-20T00:45:43.188Z,2.30
2019-06-20T00:46:43.184Z,2.40
2019-06-20T00:47:43.188Z,2.80
2019-06-20T00:48:43.148Z,2.50
2019-06-20T00:49:43.137Z,2.30
2019-06-20T00:50:43.128Z,2.60
2019-06-20T00:51:43.118Z,2.70
2019-06-20T00:52:43.123Z,2.80
2019-06-20T00:53:43.639Z,3.10
2019-06-20T00:54:43.087Z,2.70
2019-06-20T00:55:43.072Z,2.90
2019-06-20T00:56:43.075Z,2.50
2019-06-20T00:57:43.071Z,2.90
2019-06-20T00:58:43.041Z,2.90
2019-06-20T00:59:43.020Z,2.70
2019-06-20T01:00:43.026Z,2.90
2019-06-20T01:01:43.016Z,3.00
2019-06-20T01:02:43.025Z,2.80
2019-06-20T01:03:42.993Z,3.00
2019-06-20T01:04:42.972Z,2.70
2019-06-20T01:05:42.959Z,3.10
2019-06-20T01:06:42.952Z,3.10
2019-06-20T01:07:42.961Z,2.80
2019-06-20T01:08:42.936Z,3.10
2019-06-20T01:09:42.912Z,3.00
2019-06-20T01:10:42.910Z,2.80
2019-06-20T01:11:42.894Z,3.00
2019-06-20T01:12:42.900Z,3.20
2019-06-20T01:13:42.874Z,2.80
2019-06-20T01:14:42.866Z,2.90
2019-06-20T01:15:42.854Z,2.80
2019-06-20T01:16:42.837Z,2.90
2019-06-20T01:17:42.914Z,2.60
2019-06-20T01:18:42.815Z,2.30
2019-06-20T01:19:42.803Z,2.00
2019-06-20T01:20:42.798Z,2.20
2019-06-20T01:21:42.794Z,2.00
2019-06-20T01:22:42.848Z,1.90
2019-06-20T01:23:42.764Z,2.00
2019-06-20T01:24:42.767Z,2.10
2019-06-20T01:25:42.753Z,2.20
2019-06-20T01:26:42.730Z,2.00
2019-06-20T01:27:42.736Z,2.20
2019-06-20T01:28:42.723Z,2.00
2019-06-20T01:29:42.691Z,2.10
2019-06-20T01:30:42.684Z,1.90
2019-06-20T01:31:43.195Z,2.00
2019-06-20T01:32:42.689Z,2.10
2019-06-20T01:33:42.648Z,2.20
2019-06-20T01:34:42.644Z,2.00
2019-06-20T01:35:42.633Z,2.10
2019-06-20T01:36:42.631Z,2.30
2019-06-20T01:37:42.608Z,2.30
2019-06-20T01:38:42.707Z,2.20
2019-06-20T01:39:42.584Z,2.10
2019-06-20T01:40:42.579Z,2.30
2019-06-20T01:41:42.566Z,2.20
2019-06-20T01:42:42.561Z,2.10
2019-06-20T01:43:50.719Z,2.20
2019-06-20T01:44:43.530Z,2.40
2019-06-20T01:45:42.512Z,2.30
2019-06-20T01:46:42.504Z,2.30
2019-06-20T01:47:42.496Z,2.00
2019-06-20T01:48:42.498Z,2.30
2019-06-20T01:49:42.462Z,2.30
2019-06-20T01:50:42.469Z,2.40
2019-06-20T01:51:42.440Z,2.40
2019-06-20T01:52:42.445Z,2.50
2019-06-20T01:53:42.449Z,2.70
2019-06-20T01:54:42.414Z,2.40
2019-06-20T01:55:42.408Z,2.40
2019-06-20T01:56:42.410Z,2.70
2019-06-20T01:57:42.377Z,2.80
2019-06-20T01:58:42.374Z,2.40
2019-06-20T01:59:42.377Z,2.50
2019-06-20T02:00:42.353Z,2.30
2019-06-20T02:01:42.337Z,2.20
2019-06-20T02:02:42.334Z,2.60
2019-06-20T02:03:42.312Z,2.70
2019-06-20T02:04:42.320Z,2.50
2019-06-20T02:05:42.300Z,2.50
2019-06-20T02:06:42.280Z,2.50
2019-06-20T02:07:42.269Z,2.60
2019-06-20T02:08:42.256Z,2.30
2019-06-20T02:09:42.273Z,2.50
2019-06-20T02:10:42.241Z,2.50
2019-06-20T02:11:42.229Z,2.20
2019-06-20T02:12:42.210Z,2.50
2019-06-20T02:13:42.210Z,2.30
2019-06-20T02:14:42.216Z,2.40
2019-06-20T02:15:42.190Z,2.50
2019-06-20T02:16:42.183Z,2.90
2019-06-20T02:17:42.156Z,2.20
2019-06-20T02:18:42.154Z,2.30
2019-06-20T02:19:42.160Z,2.40
2019-06-20T02:20:42.127Z,2.70
2019-06-20T02:21:42.114Z,2.30
2019-06-20T02:22:42.118Z,2.30
2019-06-20T02:23:42.094Z,2.50
2019-06-20T02:24:42.125Z,2.50
2019-06-20T02:25:42.108Z,2.60
2019-06-20T02:26:42.061Z,2.30
2019-06-20T02:27:42.048Z,2.50
2019-06-20T02:28:42.085Z,2.50
2019-06-20T02:29:42.038Z,2.50
2019-06-20T02:30:42.013Z,2.30
2019-06-20T02:31:41.999Z,2.30
2019-06-20T02:32:41.991Z,2.50
2019-06-20T02:33:41.994Z,2.20
2019-06-20T02:34:41.996Z,2.60
2019-06-20T02:35:42.019Z,2.30
2019-06-20T02:36:41.949Z,2.70
2019-06-20T02:37:41.950Z,2.70
2019-06-20T02:38:41.929Z,2.70
2019-06-20T02:39:41.943Z,2.60
2019-06-20T02:40:41.898Z,2.70
2019-06-20T02:41:41.890Z,2.80
2019-06-20T02:42:41.883Z,2.70
2019-06-20T02:43:41.868Z,2.70
2019-06-20T02:44:41.912Z,2.60
2019-06-20T02:45:41.847Z,2.70
2019-06-20T02:46:41.918Z,2.70
2019-06-20T02:47:41.853Z,2.80
2019-06-20T02:48:41.812Z,2.80
2019-06-20T02:49:41.810Z,2.60
2019-06-20T02:50:41.808Z,2.70
2019-06-20T02:51:41.789Z,2.80
2019-06-20T02:52:42.726Z,2.60
2019-06-20T02:53:41.761Z,2.60
2019-06-20T02:54:41.752Z,2.60
2019-06-20T02:55:41.758Z,2.70
2019-06-20T02:56:41.728Z,2.70
2019-06-20T02:57:41.719Z,2.80
2019-06-20T02:58:41.708Z,2.80
2019-06-20T02:59:41.708Z,2.80
2019-06-20T03:00:41.764Z,2.70
2019-06-20T03:01:41.673Z,2.70
2019-06-20T03:02:41.667Z,2.70
2019-06-20T03:03:41.651Z,2.80
2019-06-20T03:04:42.627Z,2.80
2019-06-20T03:05:41.643Z,2.20
2019-06-20T03:06:41.607Z,2.70
2019-06-20T03:07:41.621Z,3.10
2019-06-20T03:08:41.582Z,2.80
2019-06-20T03:09:41.576Z,2.80
2019-06-20T03:10:41.591Z,2.80
2019-06-20T03:11:41.556Z,2.90
2019-06-20T03:12:41.557Z,3.10
2019-06-20T03:13:41.539Z,2.70
2019-06-20T03:14:45.439Z,2.90
2019-06-20T03:15:41.701Z,2.90
2019-06-20T03:16:41.503Z,2.60
2019-06-20T03:17:41.487Z,3.10
2019-06-20T03:18:41.504Z,2.90
2019-06-20T03:19:41.499Z,3.30
2019-06-20T03:20:41.471Z,3.10
2019-06-20T03:21:41.450Z,3.40
2019-06-20T03:22:41.436Z,3.00
2019-06-20T03:23:41.434Z,3.20
2019-06-20T03:24:41.413Z,2.80
2019-06-20T03:25:41.413Z,3.00
2019-06-20T03:26:41.384Z,3.30
2019-06-20T03:27:41.386Z,3.10
2019-06-20T03:28:41.359Z,3.40
2019-06-20T03:29:41.350Z,3.40
2019-06-20T03:30:41.356Z,3.60
2019-06-20T03:31:41.343Z,3.40
2019-06-20T03:32:41.325Z,3.40
2019-06-20T03:33:41.304Z,3.50
2019-06-20T03:34:41.335Z,3.20
2019-06-20T03:35:41.298Z,3.30
2019-06-20T03:36:41.276Z,3.30
2019-06-20T03:37:41.265Z,3.40
2019-06-20T03:38:41.255Z,3.50
2019-06-20T03:39:41.238Z,3.90
2019-06-20T03:40:41.246Z,3.80
2019-06-20T03:41:41.311Z,3.50
2019-06-20T03:42:41.209Z,3.50
2019-06-20T03:43:41.208Z,3.20
2019-06-20T03:44:41.190Z,3.20
2019-06-20T03:45:41.209Z,3.30
2019-06-20T03:46:41.161Z,3.40
2019-06-20T03:47:41.159Z,3.50
2019-06-20T03:48:41.133Z,3.20
2019-06-20T03:49:41.133Z,3.50
2019-06-20T03:50:41.124Z,3.50
2019-06-20T03:51:41.127Z,3.60
2019-06-20T03:52:41.098Z,3.50
2019-06-20T03:53:41.090Z,3.30
2019-06-20T03:54:41.071Z,3.70
2019-06-20T03:55:41.063Z,3.50
2019-06-20T03:56:41.073Z,3.70
2019-06-20T03:57:41.078Z,3.70
2019-06-20T03:58:41.030Z,3.20
2019-06-20T03:59:41.016Z,3.50
2019-06-20T04:00:41.012Z,3.40
2019-06-20T04:01:41.021Z,3.50
2019-06-20T04:02:41.027Z,3.60
2019-06-20T04:03:40.983Z,3.50
2019-06-20T04:04:40.969Z,3.50
2019-06-20T04:05:40.954Z,3.60
2019-06-20T04:06:40.969Z,3.50
2019-06-20T04:07:40.928Z,3.70
2019-06-20T04:08:41.034Z,3.30
2019-06-20T04:09:40.915Z,3.50
2019-06-20T04:10:40.889Z,3.80
2019-06-20T04:11:40.905Z,3.30
2019-06-20T04:12:40.874Z,3.30
2019-06-20T04:13:40.860Z,3.70
2019-06-20T04:14:40.907Z,4.10
2019-06-20T04:15:40.860Z,3.60
2019-06-20T04:16:40.855Z,3.40
2019-06-20T04:17:40.826Z,3.40
2019-06-20T04:18:40.806Z,3.70
2019-06-20T04:19:40.797Z,3.90
2019-06-20T04:20:40.940Z,3.50
2019-06-20T04:21:40.791Z,3.90
2019-06-20T04:22:40.763Z,3.70
2019-06-20T04:23:40.743Z,3.70
2019-06-20T04:24:40.737Z,3.60
2019-06-20T04:25:40.759Z,4.10
2019-06-20T04:26:40.816Z,3.30
2019-06-20T04:27:40.708Z,3.80
2019-06-20T04:28:40.697Z,3.60
2019-06-20T04:29:40.697Z,3.50
2019-06-20T04:30:40.713Z,4.10
2019-06-20T04:31:40.693Z,3.70
2019-06-20T04:32:41.687Z,3.60
2019-06-20T04:33:40.631Z,3.50
2019-06-20T04:34:40.644Z,3.20
2019-06-20T04:35:40.639Z,3.70
2019-06-20T04:36:40.627Z,3.80
2019-06-20T04:37:40.601Z,3.90
2019-06-20T04:38:40.623Z,3.50
2019-06-20T04:39:40.570Z,3.70
2019-06-20T04:40:40.564Z,3.30
2019-06-20T04:41:40.602Z,3.60
2019-06-20T04:42:40.583Z,3.30
2019-06-20T04:43:40.563Z,3.40
2019-06-20T04:44:40.523Z,3.60
2019-06-20T04:45:40.494Z,3.50
2019-06-20T04:46:40.513Z,3.60
2019-06-20T04:47:40.496Z,3.20
2019-06-20T04:48:40.463Z,3.40
2019-06-20T04:49:40.460Z,3.30
2019-06-20T04:50:40.456Z,3.00
2019-06-20T04:51:40.465Z,3.40
2019-06-20T04:52:40.421Z,3.20
2019-06-20T04:53:40.434Z,3.30
2019-06-20T04:54:40.415Z,3.90
2019-06-20T04:55:40.393Z,3.50
2019-06-20T04:56:40.458Z,3.50
2019-06-20T04:57:40.406Z,3.80
2019-06-20T04:58:40.363Z,3.80
2019-06-20T04:59:40.349Z,3.90
2019-06-20T05:00:40.352Z,3.60
2019-06-20T05:01:40.347Z,3.60
2019-06-20T05:02:40.317Z,3.20
2019-06-20T05:03:40.293Z,3.10
2019-06-20T05:04:40.297Z,3.60
2019-06-20T05:05:40.289Z,3.50
2019-06-20T05:06:40.307Z,3.20
2019-06-20T05:07:40.255Z,3.70
2019-06-20T05:08:40.246Z,3.60
2019-06-20T05:09:40.237Z,3.50
2019-06-20T05:10:40.324Z,3.30
2019-06-20T05:11:40.253Z,3.50
2019-06-20T05:12:40.207Z,3.60
2019-06-20T05:13:40.188Z,3.30
2019-06-20T05:14:40.180Z,3.20
2019-06-20T05:15:51.967Z,3.50
2019-06-20T05:16:41.190Z,3.60
2019-06-20T05:17:40.145Z,3.10
2019-06-20T05:18:40.195Z,3.30
2019-06-20T05:19:40.146Z,3.50
2019-06-20T05:20:40.110Z,3.00
2019-06-20T05:21:40.120Z,3.40
2019-06-20T05:22:40.119Z,3.30
2019-06-20T05:23:40.085Z,3.00
2019-06-20T05:24:40.067Z,3.20
2019-06-20T05:25:40.063Z,2.90
2019-06-20T05:26:40.117Z,2.90
2019-06-20T05:27:40.056Z,3.10
2019-06-20T05:28:40.010Z,2.70
2019-06-20T05:29:40.023Z,2.70
2019-06-20T05:30:40.003Z,3.00
2019-06-20T05:31:39.986Z,3.10
2019-06-20T05:32:39.995Z,3.30
2019-06-20T05:33:39.983Z,3.10
2019-06-20T05:34:39.946Z,3.00
2019-06-20T05:35:39.944Z,2.80
2019-06-20T05:36:39.978Z,3.10
2019-06-20T05:37:39.953Z,2.90
2019-06-20T05:38:39.919Z,2.90
2019-06-20T05:39:39.924Z,2.60
2019-06-20T05:40:39.893Z,2.80
2019-06-20T05:41:39.881Z,2.80
2019-06-20T05:42:39.890Z,2.80
2019-06-20T05:43:39.858Z,2.90
2019-06-20T05:44:39.845Z,2.90
2019-06-20T05:45:39.843Z,3.00
2019-06-20T05:46:39.823Z,2.70
2019-06-20T05:47:39.838Z,2.70
2019-06-20T05:48:39.853Z,3.20
2019-06-20T05:49:39.791Z,2.80
2019-06-20T05:50:39.774Z,2.80
2019-06-20T05:51:39.968Z,2.80
2019-06-20T05:52:39.785Z,3.10
2019-06-20T05:53:39.751Z,3.40
2019-06-20T05:54:39.889Z,4.00
2019-06-20T05:55:39.736Z,3.00
2019-06-20T05:56:39.717Z,2.90
2019-06-20T05:57:40.181Z,3.10
2019-06-20T05:58:39.701Z,3.40
2019-06-20T05:59:39.668Z,2.90
2019-06-20T06:00:39.718Z,2.90
2019-06-20T06:01:39.660Z,3.30
2019-06-20T06:02:40.231Z,2.80
2019-06-20T06:03:39.637Z,3.00
2019-06-20T06:04:39.623Z,3.00
2019-06-20T06:05:39.619Z,3.20
2019-06-20T06:06:39.619Z,3.10
2019-06-20T06:07:39.598Z,2.80
2019-06-20T06:08:39.583Z,3.40
2019-06-20T06:09:39.570Z,2.80
2019-06-20T06:10:39.555Z,2.90
2019-06-20T06:11:39.551Z,3.20
2019-06-20T06:12:39.550Z,2.80
2019-06-20T06:13:39.525Z,3.40
2019-06-20T06:14:39.521Z,3.10
2019-06-20T06:15:39.517Z,2.70
2019-06-20T06:16:39.507Z,3.00
2019-06-20T06:17:39.520Z,3.20
2019-06-20T06:18:39.488Z,3.10
2019-06-20T06:19:39.480Z,3.30
2019-06-20T06:20:39.459Z,3.30
2019-06-20T06:21:39.487Z,3.40
2019-06-20T06:22:39.463Z,3.40
2019-06-20T06:23:39.462Z,3.20
2019-06-20T06:24:39.440Z,3.20
2019-06-20T06:25:39.471Z,3.20
2019-06-20T06:26:39.412Z,3.40
2019-06-20T06:27:39.432Z,3.30
2019-06-20T06:28:39.371Z,3.30
2019-06-20T06:29:39.346Z,3.20
2019-06-20T06:30:39.722Z,3.50
2019-06-20T06:31:39.358Z,3.60
2019-06-20T06:32:40.598Z,3.90
2019-06-20T06:33:39.346Z,3.90
2019-06-20T06:34:39.294Z,3.90
2019-06-20T06:35:39.279Z,3.30
2019-06-20T06:36:39.356Z,3.80
2019-06-20T06:37:39.263Z,3.70
2019-06-20T06:38:39.280Z,4.00
2019-06-20T06:39:39.236Z,3.60
2019-06-20T06:40:39.221Z,4.00
2019-06-20T06:41:39.806Z,3.50
2019-06-20T06:42:39.236Z,3.30
2019-06-20T06:43:42.056Z,3.60
2019-06-20T06:44:39.179Z,3.30
2019-06-20T06:45:39.176Z,3.20
2019-06-20T06:46:44.896Z,3.00
2019-06-20T06:47:40.147Z,3.20
2019-06-20T06:48:39.150Z,3.40
2019-06-20T06:49:39.170Z,3.10
2019-06-20T06:50:39.116Z,3.90
2019-06-20T06:51:39.119Z,3.40
2019-06-20T06:52:39.094Z,3.50
2019-06-20T06:53:39.102Z,3.40
2019-06-20T06:54:39.072Z,3.60
2019-06-20T06:55:39.053Z,3.50
2019-06-20T06:56:39.060Z,3.60
2019-06-20T06:57:39.035Z,3.40
2019-06-20T06:58:39.028Z,3.80
2019-06-20T06:59:39.051Z,3.30
2019-06-20T07:00:38.998Z,3.90
2019-06-20T07:01:38.994Z,3.60
2019-06-20T07:02:38.982Z,3.70
2019-06-20T07:03:38.975Z,3.80
2019-06-20T07:04:38.977Z,4.10
2019-06-20T07:05:38.950Z,3.40
2019-06-20T07:06:38.942Z,3.80
2019-06-20T07:07:38.915Z,3.30
2019-06-20T07:08:38.911Z,3.90
2019-06-20T07:09:38.949Z,3.20
2019-06-20T07:10:38.894Z,3.70
2019-06-20T07:11:38.866Z,3.90
2019-06-20T07:12:38.874Z,3.60
2019-06-20T07:13:38.858Z,3.80
2019-06-20T07:14:42.552Z,3.90
2019-06-20T07:15:38.830Z,3.60
2019-06-20T07:16:38.821Z,3.60
2019-06-20T07:17:38.809Z,3.50
2019-06-20T07:18:38.826Z,3.40
2019-06-20T07:19:38.806Z,3.60
2019-06-20T07:20:38.786Z,3.40
2019-06-20T07:21:38.766Z,3.60
2019-06-20T07:22:38.767Z,3.40
2019-06-20T07:23:38.748Z,3.40
2019-06-20T07:24:38.756Z,3.00
2019-06-20T07:25:38.718Z,3.20
2019-06-20T07:26:38.718Z,3.30
2019-06-20T07:27:38.780Z,3.30
2019-06-20T07:28:38.692Z,3.10
2019-06-20T07:29:38.733Z,3.00
2019-06-20T07:30:38.670Z,3.00
2019-06-20T07:31:38.662Z,3.30
2019-06-20T07:32:38.638Z,3.40
2019-06-20T07:33:38.630Z,3.50
2019-06-20T07:34:38.898Z,3.20
2019-06-20T07:35:41.761Z,3.30
2019-06-20T07:36:38.591Z,3.30
2019-06-20T07:37:38.590Z,3.40
2019-06-20T07:38:38.578Z,3.40
2019-06-20T07:39:38.590Z,3.30
2019-06-20T07:40:38.562Z,3.40
2019-06-20T07:41:38.566Z,3.60
2019-06-20T07:42:38.531Z,3.40
2019-06-20T07:43:38.527Z,3.70
2019-06-20T07:44:38.552Z,3.90
2019-06-20T07:45:38.547Z,3.70
2019-06-20T07:46:38.490Z,3.70
2019-06-20T07:47:38.558Z,3.80
2019-06-20T07:48:38.466Z,3.60
2019-06-20T07:49:38.487Z,3.90
2019-06-20T07:50:39.396Z,4.30
2019-06-20T07:51:38.430Z,4.00
2019-06-20T07:52:38.449Z,3.90
2019-06-20T07:53:38.421Z,3.90
2019-06-20T07:54:39.288Z,4.00
2019-06-20T07:55:38.405Z,4.30
2019-06-20T07:56:38.372Z,4.30
2019-06-20T07:57:38.561Z,3.40
2019-06-20T07:58:38.358Z,3.80
2019-06-20T07:59:38.369Z,3.50
2019-06-20T08:00:38.334Z,3.50
2019-06-20T08:01:39.268Z,3.40
2019-06-20T08:02:38.320Z,3.90
2019-06-20T08:03:38.295Z,3.50
2019-06-20T08:04:38.322Z,4.00
2019-06-20T08:05:38.272Z,4.20
2019-06-20T08:06:38.286Z,3.90
2019-06-20T08:07:38.277Z,4.20
2019-06-20T08:08:38.258Z,3.90
2019-06-20T08:09:44.751Z,4.20
2019-06-20T08:10:39.233Z,3.70
2019-06-20T08:11:38.213Z,3.70
2019-06-20T08:12:38.204Z,3.70
2019-06-20T08:13:38.187Z,3.60
2019-06-20T08:14:38.178Z,3.60
2019-06-20T08:15:38.192Z,3.50
2019-06-20T08:16:38.157Z,3.60
2019-06-20T08:17:38.150Z,3.20
2019-06-20T08:18:38.134Z,3.30
2019-06-20T08:19:38.121Z,3.40
2019-06-20T08:20:38.129Z,3.60
2019-06-20T08:21:38.105Z,3.70
2019-06-20T08:22:38.087Z,3.80
2019-06-20T08:23:38.068Z,3.80
2019-06-20T08:24:38.081Z,4.10
2019-06-20T08:25:38.080Z,3.70
2019-06-20T08:26:38.039Z,4.00
2019-06-20T08:27:38.036Z,4.20
2019-06-20T08:28:38.023Z,4.00
2019-06-20T08:29:38.010Z,4.00
2019-06-20T08:30:38.018Z,4.10
2019-06-20T08:31:38.017Z,3.90
2019-06-20T08:32:37.992Z,3.50
2019-06-20T08:33:37.962Z,3.70
2019-06-20T08:34:38.135Z,4.20
2019-06-20T08:35:37.963Z,3.80
2019-06-20T08:36:37.937Z,4.10
2019-06-20T08:37:37.921Z,3.90
2019-06-20T08:38:38.096Z,4.20
2019-06-20T08:39:37.895Z,4.10
2019-06-20T08:40:37.910Z,4.20
2019-06-20T08:41:37.931Z,3.70
2019-06-20T08:42:37.857Z,3.70
2019-06-20T08:43:37.862Z,3.50
2019-06-20T08:44:37.835Z,3.80
2019-06-20T08:45:37.855Z,3.60
2019-06-20T08:46:37.816Z,3.50
2019-06-20T08:47:37.838Z,3.50
2019-06-20T08:48:37.849Z,3.40
2019-06-20T08:49:37.786Z,3.60
2019-06-20T08:50:37.781Z,2.60
2019-06-20T08:51:37.758Z,3.20
2019-06-20T08:52:37.752Z,3.00
2019-06-20T08:53:37.738Z,3.00
2019-06-20T08:54:37.732Z,3.20
2019-06-20T08:55:37.737Z,3.10
2019-06-20T08:56:37.710Z,3.50
2019-06-20T08:57:37.713Z,3.30
2019-06-20T08:58:37.689Z,3.10
2019-06-20T08:59:37.737Z,3.00
2019-06-20T09:00:37.692Z,3.30
2019-06-20T09:01:37.669Z,3.00
2019-06-20T09:02:37.634Z,3.10
2019-06-20T09:03:37.643Z,3.30
2019-06-20T09:04:37.612Z,3.50
2019-06-20T09:05:37.602Z,3.00
2019-06-20T09:06:37.620Z,3.50
2019-06-20T09:07:37.582Z,3.50
2019-06-20T09:08:37.627Z,3.10
2019-06-20T09:09:37.565Z,3.40
2019-06-20T09:10:37.683Z,3.50
2019-06-20T09:11:37.559Z,3.70
2019-06-20T09:12:37.534Z,3.30
2019-06-20T09:13:40.420Z,3.60
2019-06-20T09:14:37.521Z,3.30
2019-06-20T09:15:37.540Z,3.80
2019-06-20T09:16:37.517Z,3.40
2019-06-20T09:17:37.471Z,3.70
2019-06-20T09:18:37.476Z,3.70
2019-06-20T09:19:37.450Z,3.60
2019-06-20T09:20:37.450Z,3.80
2019-06-20T09:21:37.455Z,3.30
2019-06-20T09:22:37.411Z,3.50
2019-06-20T09:23:37.410Z,3.20
2019-06-20T09:24:37.388Z,3.30
2019-06-20T09:25:37.389Z,3.00
2019-06-20T09:26:37.393Z,3.30
2019-06-20T09:27:37.446Z,3.10
2019-06-20T09:28:37.356Z,3.30
2019-06-20T09:29:41.568Z,3.70
2019-06-20T09:30:37.336Z,3.40
2019-06-20T09:31:37.383Z,3.60
2019-06-20T09:32:37.298Z,3.00
2019-06-20T09:33:37.315Z,3.30
2019-06-20T09:34:37.298Z,3.20
2019-06-20T09:35:37.269Z,3.30
2019-06-20T09:36:37.279Z,3.40
2019-06-20T09:37:37.271Z,3.40
2019-06-20T09:38:37.237Z,3.30
2019-06-20T09:39:37.225Z,3.20
2019-06-20T09:40:37.217Z,3.30
2019-06-20T09:41:37.232Z,3.10
2019-06-20T09:42:37.204Z,3.20
2019-06-20T09:43:37.192Z,3.20
2019-06-20T09:44:37.175Z,2.90
2019-06-20T09:45:37.166Z,2.80
2019-06-20T09:46:37.187Z,3.20
2019-06-20T09:47:37.137Z,3.10
2019-06-20T09:48:37.117Z,3.30
2019-06-20T09:49:37.130Z,3.20
2019-06-20T09:50:37.845Z,3.30
2019-06-20T09:51:37.117Z,2.90
2019-06-20T09:52:37.073Z,3.10
2019-06-20T09:53:37.072Z,3.20
2019-06-20T09:54:37.063Z,3.00
2019-06-20T09:55:37.049Z,2.90
2019-06-20T09:56:37.052Z,2.80
2019-06-20T09:57:37.045Z,3.30
2019-06-20T09:58:37.008Z,3.20
2019-06-20T09:59:37.016Z,2.90
2019-06-20T10:00:37.001Z,3.30
2019-06-20T10:01:36.981Z,3.50
2019-06-20T10:02:36.996Z,3.30
2019-06-20T10:03:37.006Z,3.30
2019-06-20T10:04:36.954Z,3.10
2019-06-20T10:05:36.959Z,3.60
2019-06-20T10:06:36.938Z,3.50
2019-06-20T10:07:36.934Z,3.50
2019-06-20T10:08:36.944Z,3.70
2019-06-20T10:09:36.900Z,3.40
2019-06-20T10:10:36.974Z,3.40
2019-06-20T10:11:36.878Z,3.50
2019-06-20T10:12:36.878Z,3.90
2019-06-20T10:13:36.851Z,3.60
2019-06-20T10:14:36.831Z,3.20
2019-06-20T10:15:36.834Z,3.20
2019-06-20T10:16:45.658Z,3.30
2019-06-20T10:17:37.837Z,3.20
2019-06-20T10:18:36.796Z,3.20
2019-06-20T10:19:36.779Z,3.20
2019-06-20T10:20:38.828Z,3.50
2019-06-20T10:21:36.754Z,3.50
2019-06-20T10:22:36.779Z,3.20
2019-06-20T10:23:36.749Z,3.60
2019-06-20T10:24:36.732Z,3.40
2019-06-20T10:25:36.717Z,3.40
2019-06-20T10:26:37.769Z,3.20
2019-06-20T10:27:36.727Z,3.10
2019-06-20T10:28:36.691Z,3.60
2019-06-20T10:29:36.670Z,3.20
2019-06-20T10:30:36.672Z,3.40
2019-06-20T10:31:36.647Z,3.80
2019-06-20T10:32:36.669Z,3.30
2019-06-20T10:33:36.627Z,3.40
2019-06-20T10:34:36.613Z,3.50
2019-06-20T10:35:36.640Z,3.70
2019-06-20T10:36:36.592Z,3.10
2019-06-20T10:37:36.586Z,3.50
2019-06-20T10:38:36.606Z,3.90
2019-06-20T10:39:36.553Z,3.70
2019-06-20T10:40:36.552Z,3.60
2019-06-20T10:41:36.534Z,3.50
2019-06-20T10:42:36.523Z,4.10
2019-06-20T10:43:36.537Z,3.70
2019-06-20T10:44:36.510Z,4.30
2019-06-20T10:45:36.494Z,3.80
2019-06-20T10:46:36.483Z,3.70
2019-06-20T10:47:36.474Z,3.70
2019-06-20T10:48:36.491Z,4.10
2019-06-20T10:49:36.448Z,5.00
2019-06-20T10:50:36.501Z,5.20
2019-06-20T10:51:36.448Z,5.50
2019-06-20T10:52:36.421Z,6.10
2019-06-20T10:53:36.406Z,4.60
2019-06-20T10:54:36.540Z,4.00
2019-06-20T10:55:36.384Z,3.60
2019-06-20T10:56:36.372Z,3.80
2019-06-20T10:57:36.361Z,4.40
2019-06-20T10:58:36.353Z,4.50
2019-06-20T10:59:36.364Z,4.20
2019-06-20T11:00:36.326Z,4.80
2019-06-20T11:01:36.313Z,4.30
2019-06-20T11:02:36.953Z,3.70
2019-06-20T11:03:36.291Z,3.80
2019-06-20T11:04:36.301Z,3.90
2019-06-20T11:05:36.273Z,4.10
2019-06-20T11:06:36.295Z,4.10
2019-06-20T11:07:36.288Z,4.10
2019-06-20T11:08:36.249Z,4.00
2019-06-20T11:09:36.230Z,3.90
2019-06-20T11:10:36.230Z,3.90
2019-06-20T11:11:36.207Z,4.40
2019-06-20T11:12:45.627Z,4.30
2019-06-20T11:13:38.987Z,3.80
2019-06-20T11:14:36.166Z,4.00
2019-06-20T11:15:36.178Z,3.60
2019-06-20T11:16:36.165Z,4.60
2019-06-20T11:17:38.612Z,4.40
2019-06-20T11:18:38.285Z,4.50
2019-06-20T11:19:38.109Z,4.10
2019-06-20T11:20:36.118Z,3.70
2019-06-20T11:21:37.936Z,2.80
2019-06-20T11:22:37.850Z,2.80
2019-06-20T11:23:36.490Z,3.20
2019-06-20T11:24:37.475Z,3.30
2019-06-20T11:25:36.956Z,3.30
2019-06-20T11:26:37.722Z,3.40
2019-06-20T11:27:37.175Z,3.20
2019-06-20T11:28:37.704Z,3.00
2019-06-20T11:29:36.843Z,3.20
2019-06-20T11:30:46.728Z,3.10
2019-06-20T11:31:37.636Z,3.20
2019-06-20T11:32:36.578Z,3.20
2019-06-20T11:33:38.247Z,2.80
2019-06-20T11:34:37.662Z,3.00
2019-06-20T11:35:37.454Z,2.20
2019-06-20T11:36:37.513Z,2.50
2019-06-20T11:37:36.370Z,2.70
2019-06-20T11:38:35.920Z,2.50
2019-06-20T11:39:37.298Z,2.40
2019-06-20T11:40:36.866Z,2.40
2019-06-20T11:41:36.789Z,2.40
2019-06-20T11:42:36.100Z,2.80
2019-06-20T11:43:36.291Z,2.90
2019-06-20T11:44:36.970Z,3.10
2019-06-20T11:45:37.198Z,3.00
2019-06-20T11:46:36.969Z,2.90
2019-06-20T11:47:36.608Z,2.60
2019-06-20T11:48:36.796Z,2.80
2019-06-20T11:49:36.405Z,2.90
2019-06-20T11:50:36.273Z,3.90
2019-06-20T11:51:36.012Z,5.30
2019-06-20T11:52:40.569Z,3.70
2019-06-20T11:53:36.725Z,3.00
2019-06-20T11:54:36.004Z,3.00
2019-06-20T11:55:35.789Z,2.70
2019-06-20T11:56:35.707Z,2.80
2019-06-20T11:57:35.694Z,2.50
2019-06-20T11:58:35.676Z,2.80
2019-06-20T11:59:35.672Z,2.90
2019-06-20T12:00:35.695Z,2.80
2019-06-20T12:01:35.641Z,3.10
2019-06-20T12:02:35.627Z,3.10
2019-06-20T12:03:35.630Z,3.00
2019-06-20T12:04:35.608Z,3.10
2019-06-20T12:05:35.638Z,3.00
2019-06-20T12:06:35.600Z,3.30
2019-06-20T12:07:35.590Z,3.00
2019-06-20T12:08:35.568Z,2.90
2019-06-20T12:09:36.579Z,2.90
2019-06-20T12:10:35.573Z,3.20
2019-06-20T12:11:35.553Z,3.20
2019-06-20T12:12:35.555Z,2.90
2019-06-20T12:13:35.512Z,2.90
2019-06-20T12:14:35.510Z,3.00
2019-06-20T12:15:35.536Z,2.70
2019-06-20T12:16:35.503Z,2.90
2019-06-20T12:17:35.472Z,2.70
2019-06-20T12:18:35.467Z,2.60
2019-06-20T12:19:35.445Z,2.50
2019-06-20T12:20:35.445Z,2.60
2019-06-20T12:21:35.451Z,2.70
2019-06-20T12:22:35.417Z,2.60
2019-06-20T12:23:35.402Z,2.40
2019-06-20T12:24:35.410Z,2.40
2019-06-20T12:25:35.384Z,2.70
2019-06-20T12:26:35.390Z,2.30
2019-06-20T12:27:35.368Z,2.90
2019-06-20T12:28:35.355Z,2.50
2019-06-20T12:29:35.344Z,2.60
2019-06-20T12:30:35.332Z,2.60
2019-06-20T12:31:35.333Z,2.50
2019-06-20T12:32:35.308Z,2.90
2019-06-20T12:33:35.298Z,2.60
2019-06-20T12:34:35.296Z,2.50
2019-06-20T12:35:35.276Z,2.50
2019-06-20T12:36:35.305Z,2.50
2019-06-20T12:37:35.246Z,2.20
2019-06-20T12:38:35.246Z,2.30
2019-06-20T12:39:35.227Z,2.50
2019-06-20T12:40:35.213Z,2.90
2019-06-20T12:41:35.739Z,2.50
2019-06-20T12:42:35.207Z,2.10
2019-06-20T12:43:35.236Z,2.40
2019-06-20T12:44:35.175Z,2.30
2019-06-20T12:45:35.156Z,2.30
2019-06-20T12:46:35.180Z,2.50
2019-06-20T12:47:35.137Z,2.30
2019-06-20T12:48:35.147Z,2.50
2019-06-20T12:49:35.123Z,2.10
2019-06-20T12:50:35.112Z,2.30
2019-06-20T12:51:35.122Z,2.10
2019-06-20T12:52:35.089Z,2.30
2019-06-20T12:53:35.072Z,2.10
2019-06-20T12:54:35.075Z,2.40
2019-06-20T12:55:35.057Z,2.30
2019-06-20T12:56:35.084Z,2.20
2019-06-20T12:57:35.034Z,2.30
2019-06-20T12:58:35.024Z,2.60
2019-06-20T12:59:35.008Z,2.40
2019-06-20T13:00:35.021Z,2.50
2019-06-20T13:01:39.104Z,2.30
2019-06-20T13:02:35.973Z,2.30
2019-06-20T13:03:34.955Z,2.50
2019-06-20T13:04:34.954Z,2.30
2019-06-20T13:05:34.932Z,2.40
2019-06-20T13:06:34.951Z,2.50
2019-06-20T13:07:34.924Z,2.20
2019-06-20T13:08:34.910Z,2.20
2019-06-20T13:09:34.894Z,2.80
2019-06-20T13:10:34.887Z,2.70
2019-06-20T13:11:34.889Z,2.60
2019-06-20T13:12:34.866Z,2.40
2019-06-20T13:13:34.860Z,2.40
2019-06-20T13:14:34.849Z,2.60
2019-06-20T13:15:34.826Z,2.80
2019-06-20T13:16:34.849Z,2.80
2019-06-20T13:17:34.815Z,2.80
2019-06-20T13:18:34.803Z,2.70